createdAt,value
2023-09-11T00:00:54.434Z,18.94
2023-09-11T00:03:22.027Z,18.91
2023-09-11T00:06:04.261Z,18.88
2023-09-11T00:08:32.145Z,18.84
2023-09-11T00:11:00.762Z,18.82
2023-09-11T00:13:29.852Z,18.78
2023-09-11T00:15:56.982Z,18.76
2023-09-11T00:18:25.328Z,18.72
2023-09-11T00:20:52.923Z,18.71
2023-09-11T00:23:19.973Z,18.70
2023-09-11T00:25:47.046Z,18.69
2023-09-11T00:28:14.199Z,18.69
2023-09-11T00:30:41.132Z,18.70
2023-09-11T00:33:08.059Z,18.70
2023-09-11T00:35:35.384Z,18.71
2023-09-11T00:38:02.389Z,18.72
2023-09-11T00:40:30.006Z,18.71
2023-09-11T00:42:57.257Z,18.69
2023-09-11T00:45:27.375Z,18.69
2023-09-11T00:47:55.616Z,18.68
2023-09-11T00:50:23.974Z,18.68
2023-09-11T00:52:51.702Z,18.66
2023-09-11T00:55:20.469Z,18.63
2023-09-11T00:57:47.504Z,18.61
2023-09-11T01:00:15.273Z,18.58
2023-09-11T01:02:42.720Z,18.56
2023-09-11T01:05:12.830Z,18.54
2023-09-11T01:07:40.268Z,18.50
2023-09-11T01:10:08.133Z,18.49
2023-09-11T01:12:39.337Z,18.46
2023-09-11T01:15:08.182Z,18.44
2023-09-11T01:17:41.178Z,18.41
2023-09-11T01:20:27.661Z,18.38
2023-09-11T01:23:02.231Z,18.37
2023-09-11T01:25:53.248Z,18.38
2023-09-11T01:28:38.648Z,18.36
2023-09-11T01:31:06.478Z,18.35
2023-09-11T01:33:33.888Z,18.33
2023-09-11T01:36:00.829Z,18.30
2023-09-11T01:38:28.830Z,18.29
2023-09-11T01:41:01.223Z,18.30
2023-09-11T01:43:33.261Z,18.33
2023-09-11T01:46:04.311Z,18.35
2023-09-11T01:48:33.347Z,18.38
2023-09-11T01:51:01.198Z,18.38
2023-09-11T01:53:28.387Z,18.34
2023-09-11T01:55:56.920Z,18.30
2023-09-11T01:58:24.386Z,18.27
2023-09-11T02:00:56.037Z,18.23
2023-09-11T02:03:23.091Z,18.16
2023-09-11T02:05:50.831Z,18.12
2023-09-11T02:08:17.827Z,18.07
2023-09-11T02:10:44.750Z,18.02
2023-09-11T02:13:11.739Z,18.03
2023-09-11T02:15:38.627Z,18.00
2023-09-11T02:18:05.812Z,17.99
2023-09-11T02:20:32.829Z,17.99
2023-09-11T02:23:03.036Z,17.99
2023-09-11T02:25:30.555Z,18.00
2023-09-11T02:27:57.437Z,17.98
2023-09-11T02:30:24.693Z,17.97
2023-09-11T02:32:54.231Z,17.96
2023-09-11T02:35:21.280Z,17.94
2023-09-11T02:37:48.142Z,17.94
2023-09-11T02:40:15.141Z,17.90
2023-09-11T02:42:42.064Z,17.88
2023-09-11T02:45:09.378Z,17.87
2023-09-11T02:47:36.318Z,17.87
2023-09-11T02:50:04.721Z,17.85
2023-09-11T02:52:31.893Z,17.85
2023-09-11T02:54:59.175Z,17.83
2023-09-11T02:57:29.140Z,17.80
2023-09-11T02:59:56.763Z,17.80
2023-09-11T03:02:24.283Z,17.80
2023-09-11T03:04:58.406Z,17.79
2023-09-11T03:07:25.628Z,17.79
2023-09-11T03:09:52.697Z,17.80
2023-09-11T03:12:19.629Z,17.77
2023-09-11T03:14:46.625Z,17.77
2023-09-11T03:17:15.354Z,17.77
2023-09-11T03:19:45.708Z,17.75
2023-09-11T03:22:12.714Z,17.71
2023-09-11T03:24:42.240Z,17.66
2023-09-11T03:27:09.669Z,17.64
2023-09-11T03:29:36.583Z,17.65
2023-09-11T03:32:03.520Z,17.64
2023-09-11T03:34:31.758Z,17.67
2023-09-11T03:36:58.764Z,17.64
2023-09-11T03:39:25.642Z,17.63
2023-09-11T03:41:52.760Z,17.64
2023-09-11T03:44:19.823Z,17.67
2023-09-11T03:46:47.153Z,17.68
2023-09-11T03:49:14.577Z,17.67
2023-09-11T03:51:42.734Z,17.68
2023-09-11T03:54:12.400Z,17.64
2023-09-11T03:56:39.448Z,17.61
2023-09-11T03:59:06.400Z,17.62
2023-09-11T04:01:33.327Z,17.61
2023-09-11T04:04:00.505Z,17.57
2023-09-11T04:06:28.151Z,17.55
2023-09-11T04:08:55.396Z,17.53
2023-09-11T04:11:24.182Z,17.49
2023-09-11T04:13:52.924Z,17.44
2023-09-11T04:16:20.848Z,17.41
2023-09-11T04:18:48.043Z,17.39
2023-09-11T04:21:15.095Z,17.35
2023-09-11T04:23:42.048Z,17.30
2023-09-11T04:26:10.088Z,17.27
2023-09-11T04:28:37.450Z,17.25
2023-09-11T04:31:04.781Z,17.24
2023-09-11T04:33:32.425Z,17.23
2023-09-11T04:36:00.589Z,17.22
2023-09-11T04:38:28.037Z,17.23
2023-09-11T04:40:58.374Z,17.22
2023-09-11T04:43:26.435Z,17.22
2023-09-11T04:45:53.370Z,17.20
2023-09-11T04:48:20.403Z,17.20
2023-09-11T04:50:47.922Z,17.20
2023-09-11T04:53:14.870Z,17.21
2023-09-11T04:55:42.736Z,17.23
2023-09-11T04:58:09.697Z,17.22
2023-09-11T05:00:37.030Z,17.21
2023-09-11T05:03:04.263Z,17.19
2023-09-11T05:05:32.266Z,17.18
2023-09-11T05:07:59.415Z,17.17
2023-09-11T05:10:27.107Z,17.16
2023-09-11T05:12:53.962Z,17.15
2023-09-11T05:15:22.163Z,17.18
2023-09-11T05:17:49.197Z,17.18
2023-09-11T05:20:16.284Z,17.18
2023-09-11T05:22:46.021Z,17.16
2023-09-11T05:25:13.456Z,17.18
2023-09-11T05:27:42.003Z,17.16
2023-09-11T05:30:09.344Z,17.19
2023-09-11T05:32:36.632Z,17.19
2023-09-11T05:35:06.618Z,17.20
2023-09-11T05:37:33.786Z,17.20
2023-09-11T05:40:02.040Z,17.22
2023-09-11T05:42:30.736Z,17.22
2023-09-11T05:45:01.572Z,17.22
2023-09-11T05:47:28.735Z,17.24
2023-09-11T05:50:00.872Z,17.23
2023-09-11T05:52:28.688Z,17.22
2023-09-11T05:54:56.846Z,17.23
2023-09-11T05:57:23.814Z,17.23
2023-09-11T05:59:50.781Z,17.23
2023-09-11T06:02:17.647Z,17.16
2023-09-11T06:04:44.566Z,17.14
2023-09-11T06:07:13.930Z,17.06
2023-09-11T06:09:41.050Z,17.01
2023-09-11T06:12:08.525Z,17.03
2023-09-11T06:14:39.346Z,17.00
2023-09-11T06:17:06.580Z,16.98
2023-09-11T06:19:33.493Z,16.96
2023-09-11T06:22:04.141Z,16.92
2023-09-11T06:24:31.084Z,16.91
2023-09-11T06:27:07.863Z,16.96
2023-09-11T06:29:35.253Z,16.95
2023-09-11T06:32:02.245Z,16.99
2023-09-11T06:34:31.108Z,17.00
2023-09-11T06:36:59.964Z,17.01
2023-09-11T06:39:27.418Z,17.01
2023-09-11T06:41:57.299Z,17.03
2023-09-11T06:44:26.372Z,17.03
2023-09-11T06:46:53.317Z,17.07
2023-09-11T06:49:21.752Z,17.03
2023-09-11T06:51:48.654Z,17.05
2023-09-11T06:54:18.463Z,17.08
2023-09-11T06:56:48.463Z,17.08
2023-09-11T06:59:16.414Z,17.08
2023-09-11T07:01:43.244Z,17.08
2023-09-11T07:04:13.239Z,17.05
2023-09-11T07:06:42.057Z,17.07
2023-09-11T07:09:09.414Z,17.06
2023-09-11T07:11:36.807Z,17.05
2023-09-11T07:14:06.801Z,17.05
2023-09-11T07:16:34.004Z,17.03
2023-09-11T07:19:01.099Z,17.05
2023-09-11T07:21:29.060Z,17.05
2023-09-11T07:23:56.408Z,17.05
2023-09-11T07:26:23.395Z,17.03
2023-09-11T07:29:04.098Z,17.04
2023-09-11T07:31:33.688Z,17.05
2023-09-11T07:34:01.084Z,17.05
2023-09-11T07:36:29.763Z,17.06
2023-09-11T07:38:57.110Z,17.02
2023-09-11T07:41:24.623Z,17.06
2023-09-11T07:43:52.097Z,17.04
2023-09-11T07:46:21.545Z,17.04
2023-09-11T07:48:49.911Z,17.01
2023-09-11T07:51:16.979Z,17.01
2023-09-11T07:53:44.699Z,17.04
2023-09-11T07:56:12.280Z,17.05
2023-09-11T07:58:41.449Z,17.05
2023-09-11T08:01:08.954Z,17.06
2023-09-11T08:03:36.714Z,17.05
2023-09-11T08:06:07.096Z,17.07
2023-09-11T08:08:34.371Z,17.09
2023-09-11T08:11:18.067Z,17.13
2023-09-11T08:13:47.712Z,17.18
2023-09-11T08:16:16.152Z,17.23
2023-09-11T08:18:45.314Z,17.27
2023-09-11T08:21:14.246Z,17.29
2023-09-11T08:23:45.240Z,17.33
2023-09-11T08:26:12.884Z,17.37
2023-09-11T08:28:40.242Z,17.42
2023-09-11T08:31:09.799Z,17.44
2023-09-11T08:33:52.692Z,17.45
2023-09-11T08:36:23.642Z,17.46
2023-09-11T08:38:50.774Z,17.43
2023-09-11T08:41:19.397Z,17.41
2023-09-11T08:43:48.034Z,17.41
2023-09-11T08:46:20.260Z,17.40
2023-09-11T08:48:50.959Z,17.39
2023-09-11T08:51:24.648Z,17.37
2023-09-11T08:53:53.870Z,17.36
2023-09-11T08:56:21.378Z,17.33
2023-09-11T08:58:53.013Z,17.30
2023-09-11T09:01:24.433Z,17.30
2023-09-11T09:03:59.060Z,17.30
2023-09-11T09:06:27.301Z,17.31
2023-09-11T09:08:55.189Z,17.35
2023-09-11T09:11:25.569Z,17.38
2023-09-11T09:13:53.113Z,17.41
2023-09-11T09:16:21.873Z,17.44
2023-09-11T09:18:52.682Z,17.42
2023-09-11T09:21:21.689Z,17.42
2023-09-11T09:23:48.790Z,17.43
2023-09-11T09:26:17.250Z,17.45
2023-09-11T09:28:49.000Z,17.46
2023-09-11T09:31:24.416Z,17.52
2023-09-11T09:33:57.600Z,17.57
2023-09-11T09:36:24.995Z,17.63
2023-09-11T09:39:03.823Z,17.79
2023-09-11T09:41:30.914Z,17.90
2023-09-11T09:43:58.145Z,18.02
2023-09-11T09:46:26.841Z,18.11
2023-09-11T09:48:54.698Z,18.12
2023-09-11T09:51:23.018Z,18.15
2023-09-11T09:53:55.016Z,18.12
2023-09-11T09:56:23.565Z,18.12
2023-09-11T09:58:52.039Z,18.16
2023-09-11T10:01:21.969Z,18.18
2023-09-11T10:03:55.544Z,18.22
2023-09-11T10:06:32.837Z,18.27
2023-09-11T10:09:09.061Z,18.32
2023-09-11T10:11:37.849Z,18.39
2023-09-11T10:14:10.842Z,18.41
2023-09-11T10:16:39.678Z,18.43
2023-09-11T10:19:06.715Z,18.44
2023-09-11T10:21:34.630Z,18.42
2023-09-11T10:24:03.644Z,18.37
2023-09-11T10:26:47.932Z,18.31
2023-09-11T10:29:23.099Z,18.22
2023-09-11T10:32:36.318Z,18.20
2023-09-11T10:35:06.698Z,18.17
2023-09-11T10:37:40.058Z,18.15
2023-09-11T10:40:08.600Z,18.18
2023-09-11T10:42:36.182Z,18.20
2023-09-11T10:45:05.068Z,18.20
2023-09-11T10:47:31.979Z,18.19
2023-09-11T10:49:59.144Z,18.23
2023-09-11T10:52:28.001Z,18.27
2023-09-11T10:54:55.070Z,18.27
2023-09-11T10:57:22.170Z,18.30
2023-09-11T10:59:50.818Z,18.30
2023-09-11T11:02:22.998Z,18.29
2023-09-11T11:04:50.031Z,18.29
2023-09-11T11:07:17.097Z,18.25
2023-09-11T11:09:51.838Z,18.25
2023-09-11T11:12:35.833Z,18.20
2023-09-11T11:15:25.916Z,18.12
2023-09-11T11:18:15.844Z,18.09
2023-09-11T11:21:15.931Z,18.07
2023-09-11T11:23:57.659Z,18.05
2023-09-11T11:26:28.624Z,18.02
2023-09-11T11:28:58.002Z,18.02
2023-09-11T11:31:25.897Z,18.02
2023-09-11T11:33:53.834Z,17.98
2023-09-11T11:36:21.647Z,17.96
2023-09-11T11:38:48.684Z,17.98
2023-09-11T11:41:16.651Z,18.01
2023-09-11T11:43:44.301Z,18.03
2023-09-11T11:46:13.233Z,18.05
2023-09-11T11:48:42.882Z,18.08
2023-09-11T11:51:10.724Z,18.08
2023-09-11T11:53:40.811Z,18.11
2023-09-11T11:56:08.864Z,18.09
2023-09-11T11:58:36.216Z,18.11
2023-09-11T12:01:08.252Z,18.07
2023-09-11T12:03:48.954Z,18.07
2023-09-11T12:06:17.225Z,18.05
2023-09-11T12:08:46.414Z,18.03
2023-09-11T12:11:13.450Z,18.00
2023-09-11T12:13:50.023Z,17.95
2023-09-11T12:16:20.260Z,17.90
2023-09-11T12:18:48.724Z,17.87
2023-09-11T12:21:16.005Z,17.85
2023-09-11T12:23:43.049Z,17.83
2023-09-11T12:26:10.262Z,17.80
2023-09-11T12:28:37.429Z,17.70
2023-09-11T12:31:04.560Z,17.62
2023-09-11T12:33:36.589Z,17.54
2023-09-11T12:36:05.876Z,17.48
2023-09-11T12:38:32.955Z,17.41
2023-09-11T12:40:59.860Z,17.34
2023-09-11T12:43:27.676Z,17.22
2023-09-11T12:45:54.949Z,17.14
2023-09-11T12:48:22.989Z,17.04
2023-09-11T12:50:50.591Z,16.99
2023-09-11T12:53:17.638Z,16.93
2023-09-11T12:55:44.577Z,16.85
2023-09-11T12:58:11.642Z,16.85
2023-09-11T13:00:44.622Z,16.84
2023-09-11T13:03:12.537Z,16.78
2023-09-11T13:05:40.153Z,16.66
2023-09-11T13:08:09.516Z,16.56
2023-09-11T13:10:37.093Z,16.51
2023-09-11T13:13:07.289Z,16.49
2023-09-11T13:15:35.372Z,16.52
2023-09-11T13:18:02.497Z,16.56
2023-09-11T13:20:30.516Z,16.55
2023-09-11T13:22:57.364Z,16.52
2023-09-11T13:25:24.881Z,16.51
2023-09-11T13:27:51.992Z,16.52
2023-09-11T13:30:22.803Z,16.53
2023-09-11T13:32:50.821Z,16.49
2023-09-11T13:35:17.896Z,16.45
2023-09-11T13:37:44.848Z,16.41
2023-09-11T13:40:13.121Z,16.47
2023-09-11T13:42:40.197Z,16.47
2023-09-11T13:45:10.385Z,16.53
2023-09-11T13:47:37.416Z,16.54
2023-09-11T13:50:08.248Z,16.60
2023-09-11T13:52:35.182Z,16.64
2023-09-11T13:55:02.606Z,16.61
2023-09-11T13:57:31.443Z,16.55
2023-09-11T13:59:58.447Z,16.55
2023-09-11T14:02:28.073Z,16.59
2023-09-11T14:04:56.566Z,16.64
2023-09-11T14:07:23.578Z,16.66
2023-09-11T14:09:50.610Z,16.68
2023-09-11T14:12:17.518Z,16.68
2023-09-11T14:14:44.447Z,16.62
2023-09-11T14:17:11.451Z,16.56
2023-09-11T14:19:38.466Z,16.52
2023-09-11T14:22:05.619Z,16.44
2023-09-11T14:24:34.338Z,16.42
2023-09-11T14:27:01.898Z,16.35
2023-09-11T14:29:29.444Z,16.31
2023-09-11T14:31:56.496Z,16.36
2023-09-11T14:34:23.445Z,16.40
2023-09-11T14:36:55.029Z,16.43
2023-09-11T14:39:28.194Z,16.45
2023-09-11T14:41:56.431Z,16.52
2023-09-11T14:44:24.497Z,16.58
2023-09-11T14:46:51.401Z,16.60
2023-09-11T14:49:18.338Z,16.65
2023-09-11T14:51:46.907Z,16.67
2023-09-11T14:54:14.147Z,16.66
2023-09-11T14:56:42.347Z,16.67
2023-09-11T14:59:09.572Z,16.67
2023-09-11T15:01:36.819Z,16.68
2023-09-11T15:04:05.151Z,16.73
2023-09-11T15:06:32.413Z,16.77
2023-09-11T15:09:01.816Z,16.80
2023-09-11T15:11:28.854Z,16.87
2023-09-11T15:13:56.041Z,16.93
2023-09-11T15:16:24.132Z,16.94
2023-09-11T15:18:53.665Z,16.94
2023-09-11T15:21:21.101Z,16.88
2023-09-11T15:23:48.112Z,16.81
2023-09-11T15:26:17.845Z,16.78
2023-09-11T15:28:44.743Z,16.78
2023-09-11T15:31:11.874Z,16.78
2023-09-11T15:33:38.805Z,16.76
2023-09-11T15:36:08.160Z,16.77
2023-09-11T15:38:39.191Z,16.78
2023-09-11T15:41:09.025Z,16.81
2023-09-11T15:43:39.381Z,16.84
2023-09-11T15:46:09.115Z,16.86
2023-09-11T15:48:37.697Z,16.87
2023-09-11T15:51:06.733Z,16.93
2023-09-11T15:53:35.917Z,16.99
2023-09-11T15:56:03.424Z,17.03
2023-09-11T15:58:30.848Z,17.06
2023-09-11T16:00:58.011Z,17.03
2023-09-11T16:03:29.377Z,17.01
2023-09-11T16:05:57.452Z,17.02
2023-09-11T16:08:24.422Z,17.00
2023-09-11T16:10:51.517Z,17.00
2023-09-11T16:13:18.450Z,17.00
2023-09-11T16:15:45.447Z,17.00
2023-09-11T16:18:12.879Z,16.98
2023-09-11T16:20:43.130Z,16.97
2023-09-11T16:23:10.674Z,16.94
2023-09-11T16:25:40.058Z,16.87
2023-09-11T16:28:07.725Z,16.83
2023-09-11T16:30:35.135Z,16.76
2023-09-11T16:33:04.248Z,16.76
2023-09-11T16:35:34.587Z,16.75
2023-09-11T16:38:01.794Z,16.73
2023-09-11T16:40:28.702Z,16.73
2023-09-11T16:42:55.735Z,16.72
2023-09-11T16:45:22.703Z,16.70
2023-09-11T16:47:49.914Z,16.69
2023-09-11T16:50:19.626Z,16.66
2023-09-11T16:52:47.904Z,16.62
2023-09-11T16:55:15.265Z,16.60
2023-09-11T16:57:42.848Z,16.59
2023-09-11T17:00:10.694Z,16.57
2023-09-11T17:02:41.382Z,16.56
2023-09-11T17:05:11.749Z,16.55
2023-09-11T17:07:38.725Z,16.57
2023-09-11T17:10:08.354Z,16.60
2023-09-11T17:12:35.741Z,16.59
2023-09-11T17:15:05.547Z,16.58
2023-09-11T17:17:33.751Z,16.53
2023-09-11T17:20:00.781Z,16.55
2023-09-11T17:22:30.140Z,16.56
2023-09-11T17:24:57.524Z,16.61
2023-09-11T17:27:28.793Z,16.63
2023-09-11T17:30:00.230Z,16.63
2023-09-11T17:32:27.179Z,16.63
2023-09-11T17:34:54.126Z,16.60
2023-09-11T17:37:21.685Z,16.57
2023-09-11T17:39:50.460Z,16.55
2023-09-11T17:42:17.426Z,16.55
2023-09-11T17:44:45.488Z,16.53
2023-09-11T17:47:15.119Z,16.49
2023-09-11T17:49:44.694Z,16.47
2023-09-11T17:52:12.869Z,16.43
2023-09-11T17:54:39.919Z,16.38
2023-09-11T17:57:08.500Z,16.37
2023-09-11T17:59:35.874Z,16.33
2023-09-11T18:02:04.336Z,16.34
2023-09-11T18:04:34.530Z,16.33
2023-09-11T18:07:01.593Z,16.33
2023-09-11T18:09:28.901Z,16.35
2023-09-11T18:11:56.492Z,16.38
2023-09-11T18:14:26.021Z,16.34
2023-09-11T18:16:54.301Z,16.29
2023-09-11T18:19:21.968Z,16.25
2023-09-11T18:21:49.626Z,16.22
2023-09-11T18:26:59.800Z,16.15
2023-09-11T18:29:28.376Z,16.09
2023-09-11T18:31:56.885Z,16.08
2023-09-11T18:34:27.408Z,16.08
2023-09-11T18:36:57.920Z,16.06
2023-09-11T18:39:28.357Z,16.00
2023-09-11T18:41:58.880Z,15.99
2023-09-11T18:44:27.985Z,16.02
2023-09-11T18:46:55.637Z,16.01
2023-09-11T18:49:24.962Z,16.02
2023-09-11T18:51:55.213Z,16.03
2023-09-11T18:54:26.974Z,16.05
2023-09-11T18:56:59.477Z,16.03
2023-09-11T18:59:29.462Z,16.02
2023-09-11T19:02:05.072Z,16.01
2023-09-11T19:04:34.361Z,15.99
2023-09-11T19:07:02.435Z,15.98
2023-09-11T19:09:29.532Z,15.97
2023-09-11T19:11:56.595Z,15.96
2023-09-11T19:14:23.567Z,15.96
2023-09-11T19:16:50.449Z,15.96
2023-09-11T19:19:17.642Z,15.94
2023-09-11T19:21:47.074Z,15.97
2023-09-11T19:24:15.082Z,15.97
2023-09-11T19:26:42.416Z,15.96
2023-09-11T19:29:09.341Z,15.98
2023-09-11T19:31:36.404Z,15.98
2023-09-11T19:34:04.399Z,15.97
2023-09-11T19:36:32.840Z,15.96
2023-09-11T19:39:02.407Z,15.97
2023-09-11T19:41:30.220Z,15.99
2023-09-11T19:44:53.630Z,16.01
2023-09-11T19:47:21.988Z,15.99
2023-09-11T19:49:49.212Z,15.97
2023-09-11T19:52:16.048Z,15.96
2023-09-11T19:54:44.093Z,15.98
2023-09-11T19:57:10.953Z,15.94
2023-09-11T19:59:37.861Z,15.94
2023-09-11T20:02:04.710Z,15.93
2023-09-11T20:04:31.480Z,15.94
2023-09-11T20:06:58.196Z,15.94
2023-09-11T20:09:24.924Z,15.94
2023-09-11T20:11:51.701Z,15.95
2023-09-11T20:14:18.478Z,15.95
2023-09-11T20:16:45.231Z,15.95
2023-09-11T20:19:11.977Z,15.96
2023-09-11T20:21:39.001Z,15.96
2023-09-11T20:24:06.204Z,15.98
2023-09-11T20:26:32.957Z,15.97
2023-09-11T20:28:59.597Z,15.96
2023-09-11T20:31:26.509Z,15.96
2023-09-11T20:33:53.332Z,15.96
2023-09-11T20:36:21.162Z,15.95
2023-09-11T20:38:50.686Z,15.97
2023-09-11T20:41:18.821Z,15.96
2023-09-11T20:43:47.398Z,15.96
2023-09-11T20:46:14.364Z,15.96
2023-09-11T20:48:42.183Z,15.96
2023-09-11T20:51:11.442Z,15.96
2023-09-11T20:53:39.289Z,15.94
2023-09-11T20:56:07.516Z,15.93
2023-09-11T20:58:34.987Z,15.92
2023-09-11T21:01:06.344Z,15.89
2023-09-11T21:03:33.876Z,15.89
2023-09-11T21:06:01.219Z,15.89
2023-09-11T21:08:28.396Z,15.87
2023-09-11T21:10:55.325Z,15.85
2023-09-11T21:13:23.814Z,15.84
2023-09-11T21:15:51.090Z,15.84
2023-09-11T21:18:18.345Z,15.82
2023-09-11T21:20:45.296Z,15.81
2023-09-11T21:23:12.026Z,15.79
2023-09-11T21:25:39.046Z,15.80
2023-09-11T21:28:06.939Z,15.80
2023-09-11T21:30:35.029Z,15.80
2023-09-11T21:33:01.929Z,15.80
2023-09-11T21:35:28.881Z,15.80
2023-09-11T21:37:55.849Z,15.80
2023-09-11T21:40:22.598Z,15.79
2023-09-11T21:42:49.306Z,15.78
2023-09-11T21:45:16.536Z,15.78
2023-09-11T21:47:43.345Z,15.74
2023-09-11T21:50:10.278Z,15.71
2023-09-11T21:52:37.036Z,15.70
2023-09-11T21:55:04.508Z,15.69
2023-09-11T21:57:31.414Z,15.68
2023-09-11T21:59:59.826Z,15.66
2023-09-11T22:02:27.047Z,15.67
2023-09-11T22:04:53.775Z,15.67
2023-09-11T22:07:20.562Z,15.66
2023-09-11T22:09:47.306Z,15.65
2023-09-11T22:12:14.102Z,15.65
2023-09-11T22:14:40.893Z,15.64
2023-09-11T22:17:08.756Z,15.63
2023-09-11T22:19:37.168Z,15.63
2023-09-11T22:22:04.020Z,15.63
2023-09-11T22:24:30.774Z,15.59
2023-09-11T22:27:00.910Z,15.57
2023-09-11T22:29:33.546Z,15.51
2023-09-11T22:32:01.000Z,15.44
2023-09-11T22:34:28.044Z,15.37
2023-09-11T22:36:55.209Z,15.29
2023-09-11T22:39:21.947Z,15.21
2023-09-11T22:41:49.164Z,15.14
2023-09-11T22:44:15.992Z,15.08
2023-09-11T22:46:42.743Z,15.03
2023-09-11T22:49:09.772Z,14.99
2023-09-11T22:51:38.406Z,14.92
2023-09-11T22:54:05.276Z,14.89
2023-09-11T22:56:31.917Z,14.89
2023-09-11T22:59:01.284Z,14.87
2023-09-11T23:01:28.612Z,14.86
2023-09-11T23:03:56.065Z,14.85
2023-09-11T23:06:22.990Z,14.85
2023-09-11T23:08:49.716Z,14.86
2023-09-11T23:11:16.445Z,14.82
2023-09-11T23:13:43.140Z,14.82
2023-09-11T23:16:10.387Z,14.79
2023-09-11T23:18:37.281Z,14.77
2023-09-11T23:21:04.247Z,14.75
2023-09-11T23:23:40.632Z,14.75
2023-09-11T23:26:07.980Z,14.76
2023-09-11T23:28:35.081Z,14.76
2023-09-11T23:31:02.550Z,14.76
2023-09-11T23:33:29.336Z,14.74
2023-09-11T23:35:59.321Z,14.73
2023-09-11T23:38:28.143Z,14.72
2023-09-11T23:40:54.849Z,14.67
2023-09-11T23:43:21.572Z,14.67
2023-09-11T23:45:49.215Z,14.66
2023-09-11T23:48:15.959Z,14.61
2023-09-11T23:50:44.164Z,14.57
2023-09-11T23:53:12.933Z,14.56
2023-09-11T23:55:40.405Z,14.55
2023-09-11T23:58:07.089Z,14.50
